This is the latest recevied weather packets stored in our database for station/object OK3MS-5. If no packets are shown the sender has not sent any weather packets the latest 10 day(s).
| Time | Temp. | Humidity | Pressure | Rain* | Wind** | Luminosity | Snow |
|---|---|---|---|---|---|---|---|
| 1777891508 | 22.22° C | 43% | 1011.3 hPa | 0 mm | - | 750 W/m² | - |
| 1777891203 | 22.22° C | 43% | 1011.4 hPa | 0 mm | - | 747 W/m² | - |
| 1777890905 | 22.22° C | 43% | 1011.5 hPa | 0 mm | - | 744 W/m² | - |
| 1777890604 | 22.22° C | 42% | 1011.5 hPa | 0 mm | - | 739 W/m² | - |
| 1777890304 | 21.67° C | 45% | 1011.7 hPa | 0 mm | - | 734 W/m² | - |
| 1777890005 | 21.11° C | 45% | 1011.9 hPa | 0 mm | - | 743 W/m² | - |
| 1777889703 | 21.11° C | 47% | 1012 hPa | 0 mm | - | 734 W/m² | - |
| 1777889405 | 21.67° C | 45% | 1011.9 hPa | 0 mm | - | 568 W/m² | - |
| 1777889106 | 21.67° C | 44% | 1011.9 hPa | 0 mm | - | 783 W/m² | - |
| 1777888803 | 21.11° C | 46% | 1012 hPa | 0 mm | - | 767 W/m² | - |
| 1777888505 | 21.11° C | 47% | 1012.2 hPa | 0 mm | - | 673 W/m² | - |
| 1777888209 | 21.67° C | 44% | 1012.2 hPa | 0 mm | - | 612 W/m² | - |
| 1777887903 | 21.11° C | 45% | 1012.3 hPa | 0 mm | - | 664 W/m² | - |
| 1777887604 | 20.56° C | 47% | 1012.3 hPa | 0 mm | - | 612 W/m² | - |
| 1777887304 | 20.56° C | 46% | 1012.4 hPa | 0 mm | - | 654 W/m² | - |
| 1777887004 | 20° C | 47% | 1012.5 hPa | 0 mm | - | 698 W/m² | - |
| 1777886703 | 19.44° C | 49% | 1012.6 hPa | 0 mm | - | 683 W/m² | - |
| 1777886404 | 19.44° C | 49% | 1012.6 hPa | 0 mm | - | 511 W/m² | - |
| 1777886103 | 18.89° C | 50% | 1012.8 hPa | 0 mm | - | 594 W/m² | - |
| 1777885805 | 18.33° C | 52% | 1013 hPa | 0 mm | - | 660 W/m² | - |
| 1777885504 | 18.33° C | 53% | 1013.1 hPa | 0 mm | - | 631 W/m² | - |
| 1777885204 | 18.33° C | 52% | 1013 hPa | 0 mm | - | 580 W/m² | - |
| 1777884903 | 18.33° C | 53% | 1013 hPa | 0 mm | - | 524 W/m² | - |
| 1777884604 | 18.33° C | 53% | 1013.1 hPa | 0 mm | - | 285 W/m² | - |
| 1777884305 | 17.78° C | 53% | 1013 hPa | 0 mm | - | 275 W/m² | - |
* Rain latest hour (hover to see other rain measurements)
** Current wind speed in m/s (hover to see current wind gust speed)